createdAt,value
2018-02-10T00:00:14.102Z,101419.82
2018-02-10T00:01:21.702Z,101415.75
2018-02-10T00:02:26.588Z,101419.03
2018-02-10T00:03:30.884Z,101425.96
2018-02-10T00:04:35.123Z,101426.82
2018-02-10T00:05:39.333Z,101426.62
2018-02-10T00:06:43.507Z,101425.98
2018-02-10T00:07:47.792Z,101429.35
2018-02-10T00:08:51.994Z,101430.83
2018-02-10T00:09:56.200Z,101432.79
2018-02-10T00:11:00.636Z,101434.95
2018-02-10T00:12:04.979Z,101434.39
2018-02-10T00:13:09.219Z,101430.85
2018-02-10T00:14:13.796Z,101432.29
2018-02-10T00:15:18.252Z,101430.95
2018-02-10T00:16:22.476Z,101423.32
2018-02-10T00:17:27.192Z,101425.67
2018-02-10T00:18:31.354Z,101427.84
2018-02-10T00:19:35.580Z,101435.80
2018-02-10T00:20:40.109Z,101433.63
2018-02-10T00:21:44.377Z,101432.79
2018-02-10T00:22:49.904Z,101435.80
2018-02-10T00:23:54.141Z,101434.36
2018-02-10T00:24:58.577Z,101432.30
2018-02-10T00:26:03.357Z,101436.19
2018-02-10T00:27:07.937Z,101434.25
2018-02-10T00:28:12.263Z,101437.36
2018-02-10T00:29:16.458Z,101434.16
2018-02-10T00:30:21.127Z,101438.05
2018-02-10T00:31:25.290Z,101438.59
2018-02-10T00:32:29.543Z,101432.84
2018-02-10T00:33:34.040Z,101433.55
2018-02-10T00:34:38.346Z,101437.52
2018-02-10T00:35:42.612Z,101438.66
2018-02-10T00:36:46.971Z,101440.29
2018-02-10T00:37:51.166Z,101447.16
2018-02-10T00:38:55.829Z,101446.52
2018-02-10T00:40:00.278Z,101451.51
2018-02-10T00:41:04.839Z,101441.94
2018-02-10T00:42:09.292Z,101452.36
2018-02-10T00:43:14.449Z,101453.50
2018-02-10T00:44:18.742Z,101453.19
2018-02-10T00:45:23.880Z,101452.57
2018-02-10T00:46:28.077Z,101451.06
2018-02-10T00:47:32.287Z,101451.90
2018-02-10T00:48:36.696Z,101449.87
2018-02-10T00:49:40.921Z,101450.15
2018-02-10T00:50:45.112Z,101445.88
2018-02-10T00:51:49.728Z,101449.41
2018-02-10T00:52:53.908Z,101450.73
2018-02-10T00:53:58.214Z,101445.09
2018-02-10T00:55:02.765Z,101452.17
2018-02-10T00:56:06.964Z,101439.62
2018-02-10T00:57:12.376Z,101443.91
2018-02-10T00:58:16.523Z,101441.66
2018-02-10T00:59:20.721Z,101446.47
2018-02-10T01:01:32.664Z,101448.14
2018-02-10T01:02:37.315Z,101444.75
2018-02-10T01:03:41.706Z,101448.56
2018-02-10T01:04:46.285Z,101443.16
2018-02-10T01:05:50.473Z,101445.88
2018-02-10T01:06:54.688Z,101444.02
2018-02-10T01:07:58.960Z,101439.06
2018-02-10T01:09:03.489Z,101446.09
2018-02-10T01:10:07.652Z,101440.86
2018-02-10T01:11:12.672Z,101439.87
2018-02-10T01:12:17.290Z,101438.40
2018-02-10T01:13:21.729Z,101446.13
2018-02-10T01:14:25.928Z,101443.77
2018-02-10T01:15:30.354Z,101440.49
2018-02-10T01:16:34.828Z,101449.81
2018-02-10T01:17:38.956Z,101447.31
2018-02-10T01:18:43.080Z,101446.25
2018-02-10T01:19:47.241Z,101446.84
2018-02-10T01:20:51.420Z,101450.28
2018-02-10T01:21:56.026Z,101449.00
2018-02-10T01:23:00.401Z,101445.65
2018-02-10T01:24:04.816Z,101443.34
2018-02-10T01:25:08.965Z,101446.97
2018-02-10T01:26:14.003Z,101440.05
2018-02-10T01:27:18.304Z,101444.38
2018-02-10T01:28:22.817Z,101442.25
2018-02-10T01:29:26.966Z,101445.64
2018-02-10T01:30:31.588Z,101447.47
2018-02-10T01:31:35.746Z,101446.98
2018-02-10T01:32:40.008Z,101450.31
2018-02-10T01:33:44.524Z,101446.39
2018-02-10T01:34:49.099Z,101448.94
2018-02-10T01:35:53.244Z,101444.77
2018-02-10T01:36:57.496Z,101442.41
2018-02-10T01:38:02.303Z,101448.98
2018-02-10T01:39:07.729Z,101442.78
2018-02-10T01:40:12.522Z,101444.34
2018-02-10T01:41:16.724Z,101444.73
2018-02-10T01:42:21.388Z,101435.12
2018-02-10T01:43:25.612Z,101444.69
2018-02-10T01:44:29.920Z,101432.95
2018-02-10T01:45:34.271Z,101442.30
2018-02-10T01:46:38.731Z,101445.80
2018-02-10T01:47:44.219Z,101442.84
2018-02-10T01:48:49.411Z,101446.78
2018-02-10T01:50:02.477Z,101444.34
2018-02-10T01:51:06.675Z,101444.73
2018-02-10T01:52:11.150Z,101442.72
2018-02-10T01:53:17.033Z,101443.02
2018-02-10T01:54:22.577Z,101439.17
2018-02-10T01:55:26.712Z,101440.50
2018-02-10T01:56:30.929Z,101441.89
2018-02-10T01:57:35.087Z,101439.72
2018-02-10T01:58:39.217Z,101433.02
2018-02-10T01:59:43.331Z,101437.77
2018-02-10T02:00:48.296Z,101441.92
2018-02-10T02:01:52.512Z,101438.94
2018-02-10T02:02:56.678Z,101437.46
2018-02-10T02:04:01.149Z,101437.64
2018-02-10T02:05:05.647Z,101437.23
2018-02-10T02:06:09.948Z,101440.02
2018-02-10T02:07:15.236Z,101437.91
2018-02-10T02:08:19.619Z,101429.71
2018-02-10T02:09:24.692Z,101436.00
2018-02-10T02:10:28.913Z,101434.22
2018-02-10T02:11:33.048Z,101432.23
2018-02-10T02:12:37.187Z,101428.63
2018-02-10T02:13:41.828Z,101430.99
2018-02-10T02:14:45.997Z,101434.57
2018-02-10T02:15:50.540Z,101435.72
2018-02-10T02:16:54.682Z,101428.73
2018-02-10T02:17:59.183Z,101432.94
2018-02-10T02:19:03.620Z,101440.44
2018-02-10T02:20:08.228Z,101435.89
2018-02-10T02:21:12.973Z,101435.19
2018-02-10T02:22:17.124Z,101436.87
2018-02-10T02:23:21.879Z,101438.95
2018-02-10T02:24:27.012Z,101434.98
2018-02-10T02:25:31.328Z,101443.54
2018-02-10T02:26:35.528Z,101431.70
2018-02-10T02:27:39.695Z,101437.02
2018-02-10T02:28:43.868Z,101435.86
2018-02-10T02:29:48.051Z,101431.19
2018-02-10T02:30:52.592Z,101427.09
2018-02-10T02:31:57.332Z,101431.20
2018-02-10T02:33:02.441Z,101437.42
2018-02-10T02:34:06.940Z,101432.91
2018-02-10T02:35:11.372Z,101437.77
2018-02-10T02:36:15.532Z,101432.09
2018-02-10T02:37:19.688Z,101429.36
2018-02-10T02:38:24.980Z,101432.13
2018-02-10T02:39:29.907Z,101431.81
2018-02-10T02:40:34.251Z,101435.89
2018-02-10T02:41:38.503Z,101428.12
2018-02-10T02:42:42.625Z,101434.22
2018-02-10T02:43:47.179Z,101431.60
2018-02-10T02:44:51.789Z,101433.63
2018-02-10T02:45:56.280Z,101434.56
2018-02-10T02:47:00.905Z,101435.36
2018-02-10T02:48:05.400Z,101433.40
2018-02-10T02:49:09.575Z,101429.68
2018-02-10T02:50:13.754Z,101434.72
2018-02-10T02:51:18.449Z,101438.59
2018-02-10T02:52:23.164Z,101438.50
2018-02-10T02:53:28.233Z,101436.16
2018-02-10T02:54:32.442Z,101432.12
2018-02-10T02:55:36.908Z,101431.91
2018-02-10T02:56:41.070Z,101429.59
2018-02-10T02:57:45.519Z,101430.28
2018-02-10T02:58:49.668Z,101428.51
2018-02-10T02:59:53.864Z,101427.92
2018-02-10T03:00:58.332Z,101429.00
2018-02-10T03:02:02.701Z,101430.59
2018-02-10T03:03:07.522Z,101433.91
2018-02-10T03:04:11.679Z,101432.77
2018-02-10T03:05:16.060Z,101435.62
2018-02-10T03:06:20.207Z,101428.09
2018-02-10T03:07:24.622Z,101432.34
2018-02-10T03:08:29.268Z,101435.77
2018-02-10T03:09:33.492Z,101438.48
2018-02-10T03:10:37.723Z,101431.30
2018-02-10T03:11:41.872Z,101428.84
2018-02-10T03:12:46.064Z,101425.45
2018-02-10T03:13:50.237Z,101435.50
2018-02-10T03:14:54.811Z,101427.36
2018-02-10T03:15:59.556Z,101432.20
2018-02-10T03:17:04.054Z,101424.85
2018-02-10T03:18:08.311Z,101429.14
2018-02-10T03:19:13.311Z,101437.52
2018-02-10T03:20:17.536Z,101434.34
2018-02-10T03:21:22.155Z,101436.11
2018-02-10T03:22:26.355Z,101439.75
2018-02-10T03:23:30.488Z,101429.95
2018-02-10T03:24:34.637Z,101434.20
2018-02-10T03:25:39.012Z,101440.92
2018-02-10T03:26:43.497Z,101442.67
2018-02-10T03:27:47.659Z,101448.76
2018-02-10T03:28:52.288Z,101449.47
2018-02-10T03:29:56.803Z,101440.02
2018-02-10T03:31:01.603Z,101444.99
2018-02-10T03:32:06.118Z,101442.37
2018-02-10T03:33:11.348Z,101442.97
2018-02-10T03:34:15.941Z,101440.98
2018-02-10T03:35:20.092Z,101434.18
2018-02-10T03:36:24.271Z,101437.78
2018-02-10T03:37:28.684Z,101428.84
2018-02-10T03:38:33.560Z,101438.56
2018-02-10T03:39:38.097Z,101444.94
2018-02-10T03:40:42.573Z,101441.48
2018-02-10T03:41:46.981Z,101437.82
2018-02-10T03:42:51.279Z,101443.27
2018-02-10T03:43:55.999Z,101452.89
2018-02-10T03:45:00.968Z,101446.12
2018-02-10T03:46:06.713Z,101447.84
2018-02-10T03:47:11.553Z,101450.61
2018-02-10T03:48:15.970Z,101450.39
2018-02-10T03:49:20.543Z,101447.78
2018-02-10T03:50:25.037Z,101445.17
2018-02-10T03:51:29.812Z,101448.61
2018-02-10T03:52:33.920Z,101445.26
2018-02-10T03:53:38.297Z,101450.70
2018-02-10T03:54:42.789Z,101457.70
2018-02-10T03:55:46.930Z,101459.22
2018-02-10T03:56:51.105Z,101466.09
2018-02-10T03:57:55.225Z,101463.58
2018-02-10T03:58:59.647Z,101462.12
2018-02-10T04:00:05.157Z,101461.42
2018-02-10T04:01:10.223Z,101465.68
2018-02-10T04:02:14.411Z,101459.88
2018-02-10T04:03:18.570Z,101463.57
2018-02-10T04:04:23.197Z,101467.69
2018-02-10T04:05:27.845Z,101460.31
2018-02-10T04:06:32.136Z,101465.73
2018-02-10T04:07:36.299Z,101461.11
2018-02-10T04:08:40.440Z,101460.47
2018-02-10T04:09:44.593Z,101463.47
2018-02-10T04:10:49.341Z,101461.72
2018-02-10T04:11:53.471Z,101457.20
2018-02-10T04:12:57.791Z,101460.08
2018-02-10T04:14:02.476Z,101467.47
2018-02-10T04:15:07.056Z,101464.39
2018-02-10T04:16:12.620Z,101465.13
2018-02-10T04:17:17.142Z,101461.41
2018-02-10T04:18:21.269Z,101467.37
2018-02-10T04:19:26.308Z,101468.64
2018-02-10T04:20:30.458Z,101466.95
2018-02-10T04:21:34.668Z,101467.97
2018-02-10T04:22:38.803Z,101471.92
2018-02-10T04:23:43.479Z,101467.92
2018-02-10T04:24:48.721Z,101461.58
2018-02-10T04:25:52.871Z,101471.13
2018-02-10T04:26:57.276Z,101462.72
2018-02-10T04:28:01.936Z,101464.85
2018-02-10T04:29:06.453Z,101467.63
2018-02-10T04:30:12.946Z,101468.44
2018-02-10T04:31:17.513Z,101468.35
2018-02-10T04:32:22.063Z,101468.91
2018-02-10T04:33:27.092Z,101467.66
2018-02-10T04:34:31.467Z,101470.85
2018-02-10T04:35:35.660Z,101469.03
2018-02-10T04:36:40.191Z,101472.94
2018-02-10T04:37:44.421Z,101471.87
2018-02-10T04:38:48.687Z,101466.91
2018-02-10T04:39:52.807Z,101466.87
2018-02-10T04:40:56.940Z,101468.38
2018-02-10T04:42:01.360Z,101461.44
2018-02-10T04:43:05.803Z,101464.61
2018-02-10T04:44:10.005Z,101461.55
2018-02-10T04:45:16.529Z,101462.02
2018-02-10T04:46:21.579Z,101462.94
2018-02-10T04:47:26.355Z,101466.02
2018-02-10T04:48:30.504Z,101467.56
2018-02-10T04:49:35.195Z,101469.55
2018-02-10T04:50:39.315Z,101478.48
2018-02-10T04:51:43.533Z,101471.22
2018-02-10T04:52:47.760Z,101468.40
2018-02-10T04:53:52.758Z,101475.08
2018-02-10T04:54:56.911Z,101474.89
2018-02-10T04:56:01.757Z,101475.55
2018-02-10T04:57:06.051Z,101473.77
2018-02-10T04:58:10.202Z,101477.73
2018-02-10T04:59:15.337Z,101474.34
2018-02-10T05:00:19.771Z,101474.42
2018-02-10T05:01:23.930Z,101472.02
2018-02-10T05:02:28.475Z,101473.35
2018-02-10T05:03:32.600Z,101471.42
2018-02-10T05:04:36.755Z,101470.41
2018-02-10T05:05:40.919Z,101473.41
2018-02-10T05:06:45.061Z,101473.67
2018-02-10T05:07:49.382Z,101473.72
2018-02-10T05:08:53.894Z,101476.21
2018-02-10T05:09:58.673Z,101483.69
2018-02-10T05:11:03.470Z,101482.53
2018-02-10T05:12:07.626Z,101486.22
2018-02-10T05:13:11.845Z,101483.70
2018-02-10T05:14:15.999Z,101486.39
2018-02-10T05:15:20.562Z,101492.91
2018-02-10T05:16:25.125Z,101495.58
2018-02-10T05:17:29.358Z,101491.19
2018-02-10T05:18:33.506Z,101495.48
2018-02-10T05:19:38.400Z,101498.79
2018-02-10T05:20:42.943Z,101496.95
2018-02-10T05:21:47.122Z,101502.95
2018-02-10T05:22:51.275Z,101491.43
2018-02-10T05:23:55.659Z,101501.80
2018-02-10T05:25:00.406Z,101502.77
2018-02-10T05:26:05.584Z,101497.68
2018-02-10T05:27:10.324Z,101492.97
2018-02-10T05:28:14.742Z,101496.79
2018-02-10T05:29:19.636Z,101495.55
2018-02-10T05:30:24.138Z,101494.84
2018-02-10T05:31:29.425Z,101500.04
2018-02-10T05:32:34.187Z,101500.76
2018-02-10T05:33:38.964Z,101499.62
2018-02-10T05:34:43.279Z,101500.28
2018-02-10T05:35:47.620Z,101498.14
2018-02-10T05:36:51.752Z,101504.03
2018-02-10T05:37:56.388Z,101492.88
2018-02-10T05:39:00.523Z,101495.27
2018-02-10T05:40:05.106Z,101496.12
2018-02-10T05:41:09.824Z,101492.45
2018-02-10T05:42:14.340Z,101498.29
2018-02-10T05:43:19.778Z,101493.67
2018-02-10T05:44:23.939Z,101497.86
2018-02-10T05:45:28.660Z,101487.86
2018-02-10T05:46:32.811Z,101488.96
2018-02-10T05:47:36.943Z,101481.80
2018-02-10T05:48:42.210Z,101480.72
2018-02-10T05:49:46.345Z,101482.66
2018-02-10T05:50:50.572Z,101469.70
2018-02-10T05:51:55.148Z,101469.06
2018-02-10T05:52:59.271Z,101468.80
2018-02-10T05:54:03.419Z,101469.11
2018-02-10T05:55:07.538Z,101467.67
2018-02-10T05:56:11.875Z,101468.96
2018-02-10T05:57:16.159Z,101462.08
2018-02-10T05:58:20.621Z,101464.02
2018-02-10T05:59:24.773Z,101464.20
2018-02-10T06:00:29.396Z,101465.97
2018-02-10T06:01:33.971Z,101467.34
2018-02-10T06:02:38.892Z,101468.12
2018-02-10T06:03:43.432Z,101470.61
2018-02-10T06:04:47.750Z,101466.81
2018-02-10T06:05:52.371Z,101467.15
2018-02-10T06:06:56.852Z,101465.14
2018-02-10T06:08:01.122Z,101465.06
2018-02-10T06:09:05.951Z,101464.03
2018-02-10T06:10:10.634Z,101459.34
2018-02-10T06:11:15.320Z,101458.64
2018-02-10T06:12:19.478Z,101456.95
2018-02-10T06:13:23.616Z,101459.49
2018-02-10T06:14:27.749Z,101455.76
2018-02-10T06:15:32.428Z,101458.73
2018-02-10T06:16:37.100Z,101461.50
2018-02-10T06:17:41.228Z,101456.87
2018-02-10T06:18:45.402Z,101460.89
2018-02-10T06:19:49.543Z,101461.70
2018-02-10T06:20:53.763Z,101454.03
2018-02-10T06:21:58.461Z,101455.08
2018-02-10T06:23:02.603Z,101457.34
2018-02-10T06:24:06.829Z,101453.33
2018-02-10T06:25:11.903Z,101454.12
2018-02-10T06:26:16.117Z,101452.80
2018-02-10T06:27:20.368Z,101443.84
2018-02-10T06:28:25.647Z,101450.19
2018-02-10T06:29:29.782Z,101441.43
2018-02-10T06:30:34.343Z,101445.97
2018-02-10T06:31:38.627Z,101436.97
2018-02-10T06:32:43.018Z,101443.45
2018-02-10T06:33:47.521Z,101440.17
2018-02-10T06:34:52.361Z,101442.12
2018-02-10T06:35:56.498Z,101439.22
2018-02-10T06:37:00.819Z,101448.69
2018-02-10T06:38:04.963Z,101452.62
2018-02-10T06:39:09.262Z,101452.12
2018-02-10T06:40:14.844Z,101449.25
2018-02-10T06:41:19.293Z,101445.00
2018-02-10T06:42:24.720Z,101441.09
2018-02-10T06:43:29.080Z,101438.35
2018-02-10T06:44:33.436Z,101444.41
2018-02-10T06:45:39.225Z,101443.27
2018-02-10T06:46:43.783Z,101441.06
2018-02-10T06:47:48.317Z,101438.52
2018-02-10T06:48:52.748Z,101436.86
2018-02-10T06:49:57.343Z,101429.68
2018-02-10T06:51:01.832Z,101426.81
2018-02-10T06:52:06.688Z,101423.70
2018-02-10T06:53:11.152Z,101424.88
2018-02-10T06:54:15.929Z,101432.55
2018-02-10T06:55:20.382Z,101430.28
2018-02-10T06:56:24.824Z,101434.99
2018-02-10T06:57:28.969Z,101438.28
2018-02-10T06:58:34.737Z,101432.83
2018-02-10T06:59:38.919Z,101435.41
2018-02-10T07:00:43.424Z,101423.08
2018-02-10T07:01:47.907Z,101430.75
2018-02-10T07:02:52.174Z,101433.65
2018-02-10T07:03:56.354Z,101432.92
2018-02-10T07:05:00.509Z,101437.56
2018-02-10T07:06:04.671Z,101434.28
2018-02-10T07:07:08.825Z,101439.32
2018-02-10T07:08:13.177Z,101441.50
2018-02-10T07:09:18.889Z,101449.00
2018-02-10T07:10:26.876Z,101451.49
2018-02-10T07:11:33.079Z,101461.06
2018-02-10T07:12:37.231Z,101457.20
2018-02-10T07:13:41.508Z,101466.02
2018-02-10T07:14:45.635Z,101452.69
2018-02-10T07:15:50.132Z,101455.50
2018-02-10T07:16:54.586Z,101451.83
2018-02-10T07:17:59.484Z,101463.00
2018-02-10T07:19:03.933Z,101458.66
2018-02-10T07:20:10.966Z,101457.16
2018-02-10T07:21:15.764Z,101458.62
2018-02-10T07:22:19.916Z,101458.42
2018-02-10T07:23:25.098Z,101459.35
2018-02-10T07:24:29.652Z,101467.05
2018-02-10T07:25:33.795Z,101466.55
2018-02-10T07:26:38.123Z,101463.58
2018-02-10T07:27:42.336Z,101477.63
2018-02-10T07:28:46.529Z,101482.19
2018-02-10T07:29:50.737Z,101479.66
2018-02-10T07:30:55.970Z,101476.59
2018-02-10T07:32:00.121Z,101475.11
2018-02-10T07:33:04.444Z,101471.52
2018-02-10T07:34:08.583Z,101463.83
2018-02-10T07:35:13.019Z,101466.12
2018-02-10T07:36:17.776Z,101460.71
2018-02-10T07:37:21.972Z,101468.77
2018-02-10T07:38:26.646Z,101461.88
2018-02-10T07:39:30.973Z,101460.98
2018-02-10T07:40:35.795Z,101470.45
2018-02-10T07:41:39.936Z,101464.66
2018-02-10T07:42:44.689Z,101466.97
2018-02-10T07:43:48.886Z,101466.54
2018-02-10T07:44:53.019Z,101469.56
2018-02-10T07:45:57.389Z,101473.05
2018-02-10T07:47:01.519Z,101468.36
2018-02-10T07:48:05.663Z,101470.03
2018-02-10T07:49:10.295Z,101471.95
2018-02-10T07:50:14.975Z,101475.44
2018-02-10T07:51:19.132Z,101472.51
2018-02-10T07:52:23.295Z,101484.87
2018-02-10T07:53:28.231Z,101491.11
2018-02-10T07:54:32.476Z,101488.45
2018-02-10T07:55:37.303Z,101489.14
2018-02-10T07:56:41.459Z,101488.91
2018-02-10T07:57:45.755Z,101489.91
2018-02-10T07:58:49.938Z,101488.22
2018-02-10T07:59:54.120Z,101490.66
2018-02-10T08:00:58.591Z,101493.69
2018-02-10T08:02:03.362Z,101498.75
2018-02-10T08:03:07.529Z,101503.11
2018-02-10T08:04:11.880Z,101499.55
2018-02-10T08:05:16.612Z,101499.20
2018-02-10T08:06:20.852Z,101502.66
2018-02-10T08:07:26.781Z,101500.17
2018-02-10T08:08:31.467Z,101501.77
2018-02-10T08:09:36.133Z,101489.47
2018-02-10T08:10:40.316Z,101486.53
2018-02-10T08:11:44.736Z,101484.41
2018-02-10T08:12:48.883Z,101489.05
2018-02-10T08:13:53.024Z,101489.62
2018-02-10T08:14:57.496Z,101490.86
2018-02-10T08:16:01.971Z,101487.50
2018-02-10T08:17:06.226Z,101480.27
2018-02-10T08:18:10.571Z,101477.45
2018-02-10T08:19:14.967Z,101480.39
2018-02-10T08:20:19.125Z,101481.80
2018-02-10T08:21:23.377Z,101482.52
2018-02-10T08:22:28.164Z,101483.47
2018-02-10T08:23:32.309Z,101484.39
2018-02-10T08:24:37.433Z,101488.92
2018-02-10T08:25:41.648Z,101490.13
2018-02-10T08:26:46.232Z,101477.12
2018-02-10T08:27:50.445Z,101485.80
2018-02-10T08:28:54.605Z,101478.01
2018-02-10T08:29:58.756Z,101478.64
2018-02-10T08:31:03.242Z,101476.14
2018-02-10T08:32:07.903Z,101486.45
2018-02-10T08:33:12.290Z,101484.69
2018-02-10T08:34:16.745Z,101482.18
2018-02-10T08:35:20.923Z,101495.28
2018-02-10T08:36:25.284Z,101493.91
2018-02-10T08:38:32.875Z,101491.23
2018-02-10T08:39:37.666Z,101500.14
2018-02-10T08:40:41.895Z,101499.55
2018-02-10T08:41:46.142Z,101500.16
2018-02-10T08:42:50.304Z,101501.03
2018-02-10T08:43:54.480Z,101508.12
2018-02-10T08:45:00.104Z,101502.80
2018-02-10T08:46:04.468Z,101499.48
2018-02-10T08:47:08.717Z,101494.33
2018-02-10T08:48:13.215Z,101499.39
2018-02-10T08:49:17.578Z,101499.02
2018-02-10T08:50:21.743Z,101501.28
2018-02-10T08:51:26.850Z,101502.44
2018-02-10T08:52:31.448Z,101497.66
2018-02-10T08:53:35.691Z,101492.53
2018-02-10T08:54:40.660Z,101494.92
2018-02-10T08:55:44.817Z,101486.53
2018-02-10T08:56:49.014Z,101476.09
2018-02-10T08:57:55.300Z,101481.23
2018-02-10T08:58:59.540Z,101482.72
2018-02-10T09:00:05.290Z,101487.59
2018-02-10T09:01:09.882Z,101485.33
2018-02-10T09:02:14.467Z,101481.43
2018-02-10T09:03:18.865Z,101479.16
2018-02-10T09:04:26.674Z,101483.10
2018-02-10T09:05:30.888Z,101480.98
2018-02-10T09:06:35.996Z,101480.06
2018-02-10T09:07:40.911Z,101486.21
2018-02-10T09:08:45.108Z,101476.72
2018-02-10T09:09:49.315Z,101485.64
2018-02-10T09:10:54.010Z,101476.12
2018-02-10T09:11:58.163Z,101478.05
2018-02-10T09:13:02.503Z,101482.97
2018-02-10T09:14:06.742Z,101482.25
2018-02-10T09:15:13.590Z,101484.72
2018-02-10T09:16:18.635Z,101482.52
2018-02-10T09:17:22.849Z,101497.25
2018-02-10T09:18:27.053Z,101495.95
2018-02-10T09:19:31.269Z,101489.28
2018-02-10T09:20:35.479Z,101486.68
2018-02-10T09:21:39.862Z,101490.56
2018-02-10T09:22:44.413Z,101483.01
2018-02-10T09:23:48.584Z,101481.01
2018-02-10T09:24:52.730Z,101476.80
2018-02-10T09:25:57.011Z,101479.91
2018-02-10T09:27:01.168Z,101480.89
2018-02-10T09:28:05.344Z,101476.49
2018-02-10T09:29:09.883Z,101475.95
2018-02-10T09:30:16.981Z,101478.45
2018-02-10T09:31:21.344Z,101477.59
2018-02-10T09:32:25.548Z,101478.77
2018-02-10T09:33:29.748Z,101477.17
2018-02-10T09:34:33.931Z,101475.22
2018-02-10T09:35:38.581Z,101475.34
2018-02-10T09:36:42.889Z,101477.28
2018-02-10T09:37:47.222Z,101465.66
2018-02-10T09:38:51.394Z,101466.29
2018-02-10T09:39:55.622Z,101466.11
2018-02-10T09:40:59.870Z,101460.22
2018-02-10T09:42:04.093Z,101466.04
2018-02-10T09:43:08.355Z,101464.44
2018-02-10T09:44:12.621Z,101467.02
2018-02-10T09:45:18.709Z,101464.00
2018-02-10T09:46:22.921Z,101469.66
2018-02-10T09:47:27.158Z,101469.72
2018-02-10T09:48:31.832Z,101464.63
2018-02-10T09:49:36.114Z,101469.34
2018-02-10T09:50:40.353Z,101472.38
2018-02-10T09:51:44.570Z,101470.42
2018-02-10T09:52:49.017Z,101473.91
2018-02-10T09:53:53.225Z,101473.47
2018-02-10T09:54:57.768Z,101475.59
2018-02-10T09:56:02.008Z,101478.30
2018-02-10T09:57:06.221Z,101473.17
2018-02-10T09:58:10.453Z,101471.84
2018-02-10T09:59:14.758Z,101472.21
2018-02-10T10:00:19.510Z,101477.55
2018-02-10T10:01:24.140Z,101473.11
2018-02-10T10:02:28.330Z,101477.45
2018-02-10T10:03:32.704Z,101474.95
2018-02-10T10:04:36.883Z,101482.53
2018-02-10T10:05:41.144Z,101474.42
2018-02-10T10:06:45.341Z,101477.81
2018-02-10T10:07:51.992Z,101469.20
2018-02-10T10:08:56.565Z,101478.73
2018-02-10T10:10:00.728Z,101475.44
2018-02-10T10:11:04.954Z,101474.31
2018-02-10T10:12:09.189Z,101471.77
2018-02-10T10:13:14.197Z,101472.91
2018-02-10T10:14:19.142Z,101463.05
2018-02-10T10:15:23.841Z,101462.84
2018-02-10T10:16:28.064Z,101456.98
2018-02-10T10:17:32.249Z,101456.34
2018-02-10T10:18:37.342Z,101457.92
2018-02-10T10:20:50.078Z,101466.16
2018-02-10T10:21:54.293Z,101469.56
2018-02-10T10:22:58.601Z,101467.59
2018-02-10T10:24:02.845Z,101468.38
2018-02-10T10:25:07.072Z,101471.60
2018-02-10T10:26:11.374Z,101471.70
2018-02-10T10:27:15.992Z,101464.88
2018-02-10T10:28:20.260Z,101472.87
2018-02-10T10:29:24.493Z,101468.33
2018-02-10T10:30:29.932Z,101474.56
2018-02-10T10:31:34.900Z,101468.25
2018-02-10T10:32:39.114Z,101464.50
2018-02-10T10:33:44.558Z,101462.12
2018-02-10T10:34:48.774Z,101462.56
2018-02-10T10:35:53.112Z,101460.72
2018-02-10T10:36:57.384Z,101461.48
2018-02-10T10:38:01.588Z,101463.52
2018-02-10T10:39:06.099Z,101463.56
2018-02-10T10:40:10.347Z,101463.20
2018-02-10T10:41:14.625Z,101467.50
2018-02-10T10:42:18.864Z,101462.39
2018-02-10T10:43:23.175Z,101461.81
2018-02-10T10:44:27.540Z,101461.31
2018-02-10T10:45:32.763Z,101460.95
2018-02-10T10:46:38.273Z,101457.53
2018-02-10T10:47:42.528Z,101457.09
2018-02-10T10:48:46.854Z,101461.71
2018-02-10T10:49:51.718Z,101452.41
2018-02-10T10:50:55.959Z,101459.71
2018-02-10T10:52:00.194Z,101458.03
2018-02-10T10:53:05.617Z,101462.68
2018-02-10T10:54:09.816Z,101460.44
2018-02-10T10:55:14.137Z,101462.09
2018-02-10T10:56:18.423Z,101457.45
2018-02-10T10:57:22.619Z,101460.04
2018-02-10T10:58:26.930Z,101454.15
2018-02-10T10:59:31.514Z,101458.84
2018-02-10T11:00:35.987Z,101455.19
2018-02-10T11:01:40.499Z,101450.48
2018-02-10T11:02:45.273Z,101450.73
2018-02-10T11:03:49.520Z,101454.20
2018-02-10T11:04:53.753Z,101458.02
2018-02-10T11:05:58.956Z,101455.28
2018-02-10T11:07:03.269Z,101458.55
2018-02-10T11:08:07.481Z,101463.51
2018-02-10T11:09:11.663Z,101457.77
2018-02-10T11:10:15.982Z,101461.03
2018-02-10T11:11:20.216Z,101467.45
2018-02-10T11:12:24.589Z,101463.20
2018-02-10T11:13:28.786Z,101461.81
2018-02-10T11:14:32.980Z,101458.86
2018-02-10T11:15:37.417Z,101460.30
2018-02-10T11:16:41.940Z,101454.83
2018-02-10T11:17:46.780Z,101452.08
2018-02-10T11:18:50.976Z,101460.44
2018-02-10T11:19:55.192Z,101458.86
2018-02-10T11:20:59.471Z,101457.63
2018-02-10T11:22:03.694Z,101458.02
2018-02-10T11:23:08.248Z,101457.31
2018-02-10T11:24:12.487Z,101455.56
2018-02-10T11:25:16.748Z,101448.66
2018-02-10T11:26:21.039Z,101454.89
2018-02-10T11:27:25.305Z,101455.59
2018-02-10T11:28:29.536Z,101463.69
2018-02-10T11:29:34.249Z,101470.15
2018-02-10T11:30:38.767Z,101464.98
2018-02-10T11:31:43.500Z,101469.81
2018-02-10T11:32:48.601Z,101464.11
2018-02-10T11:33:52.849Z,101465.27
2018-02-10T11:34:57.089Z,101454.61
2018-02-10T11:36:01.340Z,101455.94
2018-02-10T11:37:05.654Z,101458.42
2018-02-10T11:38:09.957Z,101458.00
2018-02-10T11:39:14.209Z,101451.17
2018-02-10T11:40:18.411Z,101454.99
2018-02-10T11:41:22.646Z,101455.14
2018-02-10T11:42:27.353Z,101450.16
2018-02-10T11:43:31.644Z,101450.48
2018-02-10T11:44:35.845Z,101457.37
2018-02-10T11:45:40.396Z,101448.98
2018-02-10T11:46:44.685Z,101450.97
2018-02-10T11:47:48.909Z,101447.77
2018-02-10T11:48:53.610Z,101445.58
2018-02-10T11:49:57.814Z,101453.56
2018-02-10T11:51:02.520Z,101446.84
2018-02-10T11:52:06.733Z,101450.87
2018-02-10T11:53:10.983Z,101435.28
2018-02-10T11:54:15.332Z,101438.34
2018-02-10T11:55:20.077Z,101427.30
2018-02-10T11:56:24.483Z,101432.60
2018-02-10T11:57:28.737Z,101430.16
2018-02-10T11:58:33.126Z,101430.37
2018-02-10T11:59:37.378Z,101426.64
2018-02-10T12:00:41.905Z,101426.02
2018-02-10T12:01:46.525Z,101431.50
2018-02-10T12:02:51.484Z,101429.89
2018-02-10T12:03:56.525Z,101424.45
2018-02-10T12:05:00.733Z,101420.71
2018-02-10T12:06:05.012Z,101422.56
2018-02-10T12:07:09.678Z,101420.48
2018-02-10T12:08:13.909Z,101422.80
2018-02-10T12:09:18.237Z,101420.27
2018-02-10T12:10:22.554Z,101422.51
2018-02-10T12:11:26.887Z,101417.08
2018-02-10T12:12:31.128Z,101418.41
2018-02-10T12:13:35.752Z,101420.36
2018-02-10T12:14:39.991Z,101420.72
2018-02-10T12:15:44.618Z,101419.73
2018-02-10T12:16:48.890Z,101417.84
2018-02-10T12:17:53.107Z,101417.87
2018-02-10T12:18:58.346Z,101416.37